Pagina principale
METAR-TAF:

METAR-TAF

Aeroporti :

Ho Chi Minh, Vietnam

Aeroporto Internazionale Tan Son Nhat

latitudine: 10-49N, longitudine: 106-40E, altezza: 19 m

Osservazione

Il bollettino è stato emesso 18 minuti fa, alle 01:00 UTC
Vento 7 kt da est
Temperature 27°C
Umidità 74%
Pressione 1012 hPa
Visibilità 10 km o più
Poco nuvoloso ad un'altezza di 2000 ft

METAR: VVTS 250100Z 09007KT 9999 FEW020 27/22 Q1012 NOSIG

Ora: 08:18 (01:18 UTC)

Previsione

Il bollettino è stato emesso 2 ore e 18 minuti fa, alle 23:00 UTC
Previsione valida dal 25 alle 00 UTC al 26 alle 06 UTC
Vento 8 kt da est
Visibilità 10 km o più
Nubi sparse ad un'altezza di 1700 ft
Evoluzione graduale
dal 25 alle 06 UTC al 25 alle 07 UTC
Vento 10 kt da sud-est

TAF: VVTS 242300Z 2500/2606 08008KT 9999 SCT017 BECMG 2506/2507 14010KT

Osservazioni e previsioni meteorologiche di più di 4000 aeroporti (messaggi METAR e TAF).

Le stazioni disponibili sono rappresentate dai dischi gialli e rossi sulla carta.

Puntare il mouse per vedere il nome della stazione.

Clicca sopra per visualizzare le osservazioni e previsioni meteorologiche.

Per cambiare la mappa : fare clic sui pulsanti verdi con una croce nera per ingrandire, il pulsante verde con un trattino per diminuire, o sulla freccia verde per le mappe adiacenti.


METAR-TAF: